Time;durP1;ratioP1;P1;durP2;ratioP2;P2;SDS_P1;SDS_P2;PMS_P1;PMS_P2;Temp;Humidity;BMP_temperature;BMP_pressure;BME280_temperature;BME280_humidity;BME280_pressure;Samples;Min_cycle;Max_cycle;Signal;HPM_P1;HPM_P2
2023/10/10 00:00:27;;;;;;;7.53;3.67;;;;;;;14.96;42.45;95285.16;4968701;28;20041;-72
2023/10/10 00:02:53;;;;;;;7.95;3.70;;;;;;;14.98;42.13;95276.41;4983911;28;20117;-72
2023/10/10 00:05:19;;;;;;;6.75;3.38;;;;;;;14.91;42.34;95280.22;4984370;28;20038;-73
2023/10/10 00:07:45;;;;;;;8.50;3.60;;;;;;;14.89;42.22;95274.38;4984125;28;20521;-72
2023/10/10 00:10:13;;;;;;;8.02;4.25;;;;;;;14.87;42.34;95274.06;5003584;28;20467;-73
2023/10/10 00:12:39;;;;;;;7.95;3.78;;;;;;;14.84;42.37;95263.88;5045829;28;20087;-73
2023/10/10 00:15:09;;;;;;;7.93;3.70;;;;;;;14.82;42.24;95260.81;5027652;28;20091;-73
2023/10/10 00:17:36;;;;;;;8.90;3.67;;;;;;;14.85;42.08;95254.34;5046068;28;20523;-73
2023/10/10 00:20:41;;;;;;;7.57;3.60;;;;;;;14.84;42.15;95259.13;5045340;28;20499;-73
2023/10/10 00:22:58;;;;;;;8.63;3.67;;;;;;;14.85;41.83;95249.63;5042463;28;20037;-72
2023/10/10 00:25:30;;;;;;;8.18;3.60;;;;;;;14.87;41.77;95254.69;5045800;28;20419;-73
2023/10/10 00:27:59;;;;;;;12.18;3.67;;;;;;;14.79;42.01;95243.13;5028584;28;20044;-73
2023/10/10 00:30:33;;;;;;;8.15;3.90;;;;;;;14.87;41.88;95252.69;5028438;28;20506;-72
2023/10/10 00:33:04;;;;;;;7.10;3.50;;;;;;;14.88;42.11;95251.44;5045070;28;20045;-72
2023/10/10 00:35:31;;;;;;;6.80;3.28;;;;;;;14.85;41.80;95243.28;5045740;28;20542;-73
2023/10/10 00:37:57;;;;;;;10.27;3.53;;;;;;;14.91;41.48;95249.78;5027649;28;20668;-73
2023/10/10 00:40:30;;;;;;;7.90;3.08;;;;;;;14.98;41.68;95257.78;5027619;28;20531;-73
2023/10/10 00:42:58;;;;;;;7.00;3.15;;;;;;;15.06;41.58;95252.72;5028834;28;20027;-73
2023/10/10 00:45:28;;;;;;;9.70;3.63;;;;;;;15.02;41.48;95258.41;5045313;28;20037;-73
2023/10/10 00:47:54;;;;;;;8.00;3.53;;;;;;;15.01;41.41;95264.41;5028227;28;20043;-72
2023/10/10 00:50:25;;;;;;;6.70;3.33;;;;;;;14.98;41.21;95255.03;5027220;28;20024;-73
2023/10/10 00:52:55;;;;;;;6.55;2.90;;;;;;;14.93;41.19;95255.63;5031695;28;20029;-72
2023/10/10 00:55:24;;;;;;;6.63;3.05;;;;;;;14.97;41.02;95253.50;5015473;28;20116;-72
2023/10/10 00:57:53;;;;;;;6.00;2.75;;;;;;;14.96;41.14;95251.94;5031645;28;20017;-72
2023/10/10 01:00:19;;;;;;;8.30;3.40;;;;;;;14.99;41.37;95241.94;5032082;28;20117;-72
2023/10/10 01:02:45;;;;;;;7.72;2.97;;;;;;;14.96;41.83;95240.84;5014383;28;20037;-72
2023/10/10 01:05:14;;;;;;;6.78;2.97;;;;;;;14.99;41.77;95237.19;5049638;28;20021;-72
2023/10/10 01:07:43;;;;;;;12.65;3.30;;;;;;;15.01;42.14;95240.25;5031244;28;20060;-72
2023/10/10 01:10:12;;;;;;;6.68;2.92;;;;;;;15.04;42.11;95241.34;5031814;28;20033;-72
2023/10/10 01:12:39;;;;;;;7.40;2.72;;;;;;;15.10;42.49;95243.03;5031117;28;20041;-72
2023/10/10 01:15:14;;;;;;;5.80;2.45;;;;;;;15.21;42.94;95236.31;5049160;28;20032;-71
2023/10/10 01:17:43;;;;;;;7.22;2.17;;;;;;;15.43;43.06;95241.72;5032660;28;20411;-72
2023/10/10 01:20:19;;;;;;;6.50;2.13;;;;;;;15.57;42.84;95241.09;5030847;28;20083;-72
2023/10/10 01:22:48;;;;;;;6.60;2.33;;;;;;;15.75;42.74;95251.41;5032313;28;20029;-72
2023/10/10 01:27:57;;;;;;;7.20;2.00;;;;;;;16.13;41.95;95248.91;5048980;28;20032;-73
2023/10/10 01:33:10;;;;;;;7.05;2.55;;;;;;;16.30;41.12;95259.66;5033245;28;20102;-72
2023/10/10 01:35:40;;;;;;;9.07;2.05;;;;;;;16.48;40.24;95256.06;5031525;28;20043;-72
2023/10/10 01:38:27;;;;;;;8.80;2.75;;;;;;;16.57;40.01;95270.66;5048307;28;20036;-72
2023/10/10 01:40:54;;;;;;;10.27;2.45;;;;;;;16.59;39.72;95262.63;5030990;28;20028;-72
2023/10/10 01:43:20;;;;;;;5.47;2.00;;;;;;;16.67;39.32;95266.59;5031070;28;20029;-73
2023/10/10 01:45:52;;;;;;;6.70;2.10;;;;;;;16.68;38.92;95267.38;5030626;28;20025;-72
2023/10/10 01:48:18;;;;;;;8.60;2.25;;;;;;;16.70;39.19;95262.94;5048814;28;20143;-73
2023/10/10 01:50:43;;;;;;;6.03;2.60;;;;;;;16.80;38.97;95268.44;5030153;28;20100;-72
2023/10/10 01:53:10;;;;;;;7.97;2.42;;;;;;;16.82;38.98;95266.75;5048438;28;20025;-72
2023/10/10 01:55:37;;;;;;;6.57;2.38;;;;;;;16.83;39.03;95264.72;5048403;28;20025;-73
2023/10/10 01:58:10;;;;;;;8.27;2.80;;;;;;;16.86;38.42;95272.91;5048273;28;20033;-73
2023/10/10 02:00:35;;;;;;;6.95;2.45;;;;;;;16.91;38.40;95268.69;5031711;28;20049;-73
2023/10/10 02:03:01;;;;;;;5.78;1.95;;;;;;;16.91;38.18;95272.22;5028523;28;20072;-73
2023/10/10 02:07:59;;;;;;;10.48;2.30;;;;;;;16.92;38.30;95284.13;5047897;28;20033;-73
2023/10/10 02:10:30;;;;;;;7.40;2.28;;;;;;;16.91;38.23;95296.44;5030533;28;20032;-73
2023/10/10 02:12:59;;;;;;;7.32;2.35;;;;;;;16.89;38.47;95294.16;5030770;28;20029;-73
2023/10/10 02:15:32;;;;;;;6.10;2.28;;;;;;;16.91;38.08;95288.13;5030467;28;20036;-73
2023/10/10 02:18:04;;;;;;;6.10;2.25;;;;;;;16.91;37.94;95288.13;5031178;28;20029;-73
2023/10/10 02:23:08;;;;;;;6.15;2.00;;;;;;;16.89;38.26;95282.28;5048003;28;20533;-73
2023/10/10 02:25:41;;;;;;;7.88;2.22;;;;;;;16.84;38.53;95282.91;5047961;28;20034;-73
2023/10/10 02:28:42;;;;;;;8.70;1.80;;;;;;;16.77;38.84;95283.25;5030892;28;20017;-72
2023/10/10 02:30:55;;;;;;;6.55;2.28;;;;;;;16.68;38.98;95281.25;5031570;28;20044;-73
2023/10/10 02:35:56;;;;;;;6.53;2.60;;;;;;;16.74;39.01;95279.41;5048161;28;20128;-73
2023/10/10 02:38:32;;;;;;;5.97;1.95;;;;;;;16.73;39.09;95281.41;5047445;28;20554;-72
2023/10/10 02:46:35;;;;;;;6.40;2.80;;;;;;;16.66;38.33;95273.41;5030630;28;20492;-73
2023/10/10 02:49:22;;;;;;;8.90;1.85;;;;;;;16.72;38.11;95263.22;5030704;28;20029;-73
2023/10/10 02:51:48;;;;;;;4.75;1.92;;;;;;;16.73;38.29;95264.00;5030963;28;20112;-72
2023/10/10 02:56:48;;;;;;;6.27;2.67;;;;;;;16.78;38.58;95266.13;5030971;28;20037;-72
2023/10/10 02:59:21;;;;;;;12.10;2.58;;;;;;;16.76;39.13;95262.31;5047034;28;20032;-73
2023/10/10 03:04:18;;;;;;;4.82;1.90;;;;;;;16.77;40.10;95263.84;5029745;28;20087;-72
2023/10/10 03:06:44;;;;;;;7.13;2.33;;;;;;;16.80;40.16;95260.09;5047218;28;20460;-72
2023/10/10 03:09:38;;;;;;;6.45;1.75;;;;;;;16.72;40.64;95263.22;5046576;28;20032;-73
2023/10/10 03:12:04;;;;;;;6.15;2.00;;;;;;;16.71;41.11;95258.16;5046606;28;20029;-73
2023/10/10 03:14:33;;;;;;;5.60;2.10;;;;;;;16.69;41.11;95266.94;5046914;28;20031;-73
2023/10/10 03:16:59;;;;;;;5.22;2.28;;;;;;;16.68;41.70;95270.16;5046518;28;20029;-73
2023/10/10 03:19:28;;;;;;;6.25;1.83;;;;;;;16.72;42.02;95265.22;5047023;28;20139;-73
2023/10/10 03:22:20;;;;;;;5.88;2.15;;;;;;;16.71;41.95;95264.47;5029147;28;20029;-73
2023/10/10 03:30:24;;;;;;;4.60;2.13;;;;;;;16.79;42.63;95276.00;5030982;28;20116;-72
2023/10/10 03:33:29;;;;;;;7.75;2.22;;;;;;;16.81;42.79;95286.66;5046581;28;20662;-72
2023/10/10 03:35:59;;;;;;;5.43;2.17;;;;;;;16.82;43.29;95288.94;5042723;28;20029;-72
2023/10/10 03:41:26;;;;;;;5.72;2.08;;;;;;;16.84;43.66;95288.47;5030869;28;20080;-72
2023/10/10 05:25:24;;;;;;;6.93;3.00;;;;;;;16.91;46.82;95358.31;5030165;28;20379;-74
2023/10/10 05:27:58;;;;;;;4.82;2.80;;;;;;;16.91;47.09;95366.63;5045062;28;20017;-72
2023/10/10 05:30:24;;;;;;;10.98;3.08;;;;;;;17.01;46.99;95364.59;5028231;28;20021;-72
2023/10/10 05:33:04;;;;;;;5.82;3.17;;;;;;;17.08;46.88;95372.59;5027273;28;20021;-73
2023/10/10 05:35:39;;;;;;;6.13;2.72;;;;;;;17.16;46.74;95376.59;5027691;28;20044;-73
2023/10/10 05:38:07;;;;;;;8.32;3.03;;;;;;;17.13;46.71;95371.97;5013217;28;20036;-74
2023/10/10 05:40:33;;;;;;;6.57;3.38;;;;;;;17.10;46.88;95369.38;5048625;28;20115;-74
2023/10/10 05:43:02;;;;;;;5.97;2.53;;;;;;;17.09;46.86;95374.16;5030766;28;20029;-74
2023/10/10 05:45:29;;;;;;;4.75;2.22;;;;;;;17.09;46.83;95371.38;5031208;28;20016;-75
2023/10/10 05:47:54;;;;;;;9.38;3.30;;;;;;;17.06;47.06;95377.09;5030632;28;20405;-74
2023/10/10 05:50:22;;;;;;;7.45;2.97;;;;;;;17.11;46.92;95371.66;5030946;28;20478;-75
2023/10/10 05:52:48;;;;;;;6.00;2.35;;;;;;;17.11;46.48;95368.91;5047937;28;20055;-72
2023/10/10 05:55:14;;;;;;;6.53;2.50;;;;;;;17.17;46.56;95372.56;5048653;28;20029;-74
2023/10/10 05:57:40;;;;;;;7.35;3.08;;;;;;;17.30;46.17;95374.38;5030619;28;20102;-73
2023/10/10 06:00:11;;;;;;;6.07;2.30;;;;;;;17.34;45.87;95370.19;5031048;28;20615;-74
2023/10/10 06:02:37;;;;;;;8.80;2.55;;;;;;;17.38;45.69;95370.78;5014085;28;20032;-74
2023/10/10 06:05:04;;;;;;;6.45;2.42;;;;;;;17.38;45.88;95372.81;5030319;28;20203;-74
2023/10/10 06:07:31;;;;;;;8.70;3.40;;;;;;;17.39;45.91;95377.09;5030467;28;20045;-73
2023/10/10 06:09:58;;;;;;;5.47;2.42;;;;;;;17.41;46.08;95372.59;5029157;28;20119;-73
2023/10/10 06:12:24;;;;;;;7.63;2.90;;;;;;;17.37;46.21;95377.56;5048223;28;20100;-72
2023/10/10 06:14:50;;;;;;;6.40;3.03;;;;;;;17.32;46.32;95383.00;5047411;28;20064;-73
2023/10/10 06:17:16;;;;;;;6.00;2.90;;;;;;;17.36;46.35;95366.91;5047916;28;20149;-72
2023/10/10 06:19:45;;;;;;;7.38;3.10;;;;;;;17.33;46.17;95381.78;5048222;28;20024;-72
2023/10/10 06:22:14;;;;;;;4.45;2.60;;;;;;;17.43;46.08;95377.69;5029740;28;20572;-73
2023/10/10 06:24:40;;;;;;;5.70;2.50;;;;;;;17.47;46.49;95378.28;5030856;28;20104;-72
2023/10/10 06:27:09;;;;;;;10.15;3.20;;;;;;;17.45;46.23;95387.09;5047483;28;20186;-73
2023/10/10 06:29:35;;;;;;;8.15;3.50;;;;;;;17.50;46.35;95396.81;5030578;28;20082;-73
2023/10/10 06:32:00;;;;;;;8.88;3.90;;;;;;;17.56;46.31;95397.72;5012772;28;20059;-72
2023/10/10 06:34:34;;;;;;;7.63;3.40;;;;;;;17.67;45.78;95400.75;5047558;28;20084;-73
2023/10/10 06:37:07;;;;;;;7.13;3.03;;;;;;;17.83;45.56;95393.25;5046761;28;20118;-74
2023/10/10 06:39:33;;;;;;;8.48;2.70;;;;;;;17.88;45.39;95396.13;5023192;28;20558;-75
2023/10/10 06:41:59;;;;;;;7.93;2.75;;;;;;;17.91;45.35;95391.66;5047042;28;20041;-73
2023/10/10 06:44:35;;;;;;;8.35;3.70;;;;;;;17.95;45.41;95383.88;5046650;28;20025;-75
2023/10/10 06:47:00;;;;;;;7.40;3.35;;;;;;;17.94;45.33;95393.47;5044696;28;20078;-73
2023/10/10 06:49:43;;;;;;;7.72;2.85;;;;;;;17.99;45.31;95393.59;5011891;28;20029;-79
2023/10/10 06:52:09;;;;;;;6.60;3.13;;;;;;;18.01;45.32;95402.25;5031823;28;20109;-77
2023/10/10 06:54:34;;;;;;;10.35;2.95;;;;;;;18.02;45.34;95391.88;5029850;28;20025;-76
2023/10/10 06:59:28;;;;;;;6.85;3.50;;;;;;;18.09;45.18;95393.53;5029876;28;20033;-76
2023/10/10 07:01:59;;;;;;;9.50;3.60;;;;;;;18.17;45.32;95394.69;5003575;28;20036;-77
2023/10/10 07:04:27;;;;;;;12.60;5.15;;;;;;;18.24;45.30;95400.69;5027030;28;20032;-77
2023/10/10 07:06:54;;;;;;;6.55;3.20;;;;;;;18.36;44.61;95404.44;5029028;28;20044;-78
2023/10/10 07:09:29;;;;;;;6.70;3.30;;;;;;;18.41;44.89;95401.00;5029208;28;20128;-77
2023/10/10 07:11:56;;;;;;;9.25;3.40;;;;;;;18.44;44.78;95388.13;5047361;28;20040;-79
2023/10/10 07:14:25;;;;;;;8.98;3.45;;;;;;;18.52;45.01;95395.66;5028905;28;20107;-74
2023/10/10 07:16:56;;;;;;;6.07;2.63;;;;;;;18.46;45.49;95386.41;5030152;28;20039;-77
2023/10/10 07:19:29;;;;;;;6.63;3.20;;;;;;;18.53;45.07;95394.41;5028963;28;20032;-83
2023/10/10 07:21:55;;;;;;;5.95;2.65;;;;;;;18.49;45.29;95379.91;5013104;28;20041;-82
2023/10/10 07:24:25;;;;;;;6.90;3.20;;;;;;;18.53;45.31;95388.84;5029171;28;20036;-76
2023/10/10 07:26:59;;;;;;;5.28;2.92;;;;;;;18.54;45.47;95398.72;5045821;28;20064;-78
2023/10/10 07:29:28;;;;;;;7.90;3.05;;;;;;;18.59;45.53;95397.28;5045950;28;20039;-76
2023/10/10 07:32:15;;;;;;;5.70;3.17;;;;;;;18.69;45.37;95404.31;5007855;28;20021;-77
2023/10/10 07:34:42;;;;;;;7.30;3.58;;;;;;;18.82;45.20;95415.19;5030658;28;20043;-77
2023/10/10 07:37:08;;;;;;;6.93;3.55;;;;;;;18.81;44.92;95411.66;5027819;28;20454;-80
2023/10/10 07:39:55;;;;;;;8.70;3.45;;;;;;;18.95;44.83;95412.13;5008103;28;20143;-81
2023/10/10 07:42:27;;;;;;;5.55;2.78;;;;;;;19.05;44.63;95410.78;5011388;28;20040;-79
2023/10/10 07:45:03;;;;;;;13.55;3.80;;;;;;;19.30;44.62;95414.97;5028660;28;20033;-78
2023/10/10 07:48:20;;;;;;;7.82;3.53;;;;;;;19.55;43.66;95411.53;5023705;28;20032;-77
2023/10/10 07:50:20;;;;;;;7.20;3.00;;;;;;;19.85;43.08;95392.75;5031776;28;20033;-78
2023/10/10 07:52:48;;;;;;;10.18;3.40;;;;;;;20.13;42.35;95400.72;5028483;28;20096;-78
2023/10/10 07:55:15;;;;;;;8.27;2.97;;;;;;;20.30;41.70;95406.47;5027509;28;20558;-78
2023/10/10 07:58:13;;;;;;;6.53;3.25;;;;;;;20.43;41.59;95412.47;5028059;28;20116;-78
2023/10/10 08:00:35;;;;;;;6.60;2.95;;;;;;;20.47;41.77;95406.69;5042715;28;20043;-78
2023/10/10 08:03:19;;;;;;;10.57;3.60;;;;;;;20.48;41.49;95405.47;5028223;28;20029;-78
2023/10/10 08:05:53;;;;;;;8.52;4.32;;;;;;;20.48;41.33;95419.44;5029235;28;20407;-78
2023/10/10 08:08:18;;;;;;;7.20;3.70;;;;;;;20.38;41.81;95408.38;5028521;28;20108;-78
2023/10/10 08:10:49;;;;;;;9.73;2.97;;;;;;;20.31;42.01;95422.75;5027875;28;20113;-78
2023/10/10 08:13:15;;;;;;;8.02;3.47;;;;;;;20.32;42.10;95424.28;5012207;28;20031;-78
2023/10/10 08:16:02;;;;;;;8.55;3.03;;;;;;;20.25;42.29;95424.72;5011167;28;20104;-77
2023/10/10 08:21:10;;;;;;;7.78;3.35;;;;;;;20.29;41.70;95418.91;5030342;28;20025;-78
2023/10/10 08:23:42;;;;;;;11.20;3.20;;;;;;;20.23;42.08;95420.88;5027799;28;20036;-78
2023/10/10 08:26:38;;;;;;;14.07;3.45;;;;;;;20.36;41.84;95412.91;5045925;28;20021;-78
2023/10/10 08:29:04;;;;;;;13.75;4.32;;;;;;;20.43;41.67;95418.06;5031286;28;20025;-78
2023/10/10 08:31:30;;;;;;;10.40;3.63;;;;;;;20.55;41.38;95414.16;5027467;28;20044;-77
2023/10/10 08:33:58;;;;;;;7.30;3.08;;;;;;;20.67;41.45;95412.25;5045511;28;20045;-79
2023/10/10 08:36:23;;;;;;;9.25;3.63;;;;;;;21.22;40.39;95414.06;5027497;28;20028;-76
2023/10/10 08:38:52;;;;;;;29.25;4.80;;;;;;;21.77;39.29;95426.94;5027762;28;20420;-77
2023/10/10 08:41:23;;;;;;;48.42;7.10;;;;;;;21.84;38.77;95412.47;5027067;28;20502;-78
2023/10/10 08:44:01;;;;;;;11.77;4.20;;;;;;;22.36;38.29;95406.63;5027816;28;20407;-77
2023/10/10 08:46:29;;;;;;;11.63;4.55;;;;;;;22.41;37.98;95408.69;5028919;28;20052;-77
2023/10/10 08:48:57;;;;;;;8.10;3.20;;;;;;;22.28;38.26;95419.59;5027897;28;20021;-78
2023/10/10 08:51:23;;;;;;;10.52;4.47;;;;;;;21.99;38.70;95418.66;5027356;28;20043;-78
2023/10/10 08:53:50;;;;;;;9.57;3.55;;;;;;;21.67;39.41;95423.56;5045385;28;20036;-78
2023/10/10 08:56:16;;;;;;;8.02;3.13;;;;;;;21.27;40.04;95427.28;5045245;28;20488;-78
2023/10/10 08:58:42;;;;;;;12.00;4.00;;;;;;;21.08;40.60;95420.53;5010798;28;20017;-78
2023/10/10 09:01:08;;;;;;;8.15;3.30;;;;;;;20.80;41.11;95425.84;5027478;28;20561;-78
2023/10/10 09:03:34;;;;;;;9.05;3.40;;;;;;;20.64;41.17;95433.56;5027442;28;20042;-77
2023/10/10 09:06:14;;;;;;;6.07;3.35;;;;;;;20.47;41.84;95424.22;5011125;28;20040;-78
2023/10/10 09:08:43;;;;;;;7.07;3.88;;;;;;;20.39;42.06;95434.25;5027775;28;20135;-78
2023/10/10 09:11:11;;;;;;;8.02;3.47;;;;;;;20.21;42.55;95432.53;5027580;28;20171;-78
2023/10/10 09:13:51;;;;;;;5.40;3.50;;;;;;;20.15;42.75;95440.06;5048429;28;20045;-78
2023/10/10 09:16:19;;;;;;;10.23;3.72;;;;;;;20.06;42.63;95446.53;5030609;28;20503;-78
2023/10/10 09:18:45;;;;;;;7.03;3.42;;;;;;;20.04;42.79;95426.72;5031545;28;20063;-78
2023/10/10 09:21:21;;;;;;;7.90;3.40;;;;;;;20.00;43.01;95442.91;5031115;28;20380;-78
2023/10/10 09:24:25;;;;;;;7.72;3.60;;;;;;;19.96;42.90;95442.34;5016047;28;20082;-78
2023/10/10 09:26:42;;;;;;;6.72;2.92;;;;;;;19.90;43.34;95438.72;5034719;28;20117;-78
2023/10/10 09:29:15;;;;;;;5.00;3.33;;;;;;;19.87;43.00;95434.88;5031201;28;20178;-78
2023/10/10 09:31:45;;;;;;;6.03;3.33;;;;;;;19.88;43.31;95441.22;5032191;28;20025;-77
2023/10/10 09:34:12;;;;;;;9.13;2.80;;;;;;;19.86;43.40;95433.34;5031178;28;20060;-78
2023/10/10 09:36:39;;;;;;;8.63;3.15;;;;;;;19.88;43.38;95438.41;5030924;28;20025;-77
2023/10/10 09:39:08;;;;;;;7.15;2.63;;;;;;;19.89;43.11;95429.56;5014823;28;20083;-78
2023/10/10 09:49:46;;;;;;;6.95;3.40;;;;;;;19.97;42.90;95429.16;5048320;28;20418;-78
2023/10/10 09:55:54;;;;;;;8.95;4.10;;;;;;;20.26;42.53;95426.25;5033267;28;20099;-79
2023/10/10 10:03:31;;;;;;;5.47;2.72;;;;;;;20.37;42.48;95408.88;5030934;28;20029;-79
2023/10/10 10:06:34;;;;;;;5.55;2.88;;;;;;;20.30;42.28;95412.84;5033142;28;20396;-78
2023/10/10 10:09:08;;;;;;;5.60;2.80;;;;;;;20.34;42.30;95409.84;5048145;28;20036;-78
2023/10/10 10:11:59;;;;;;;6.95;2.33;;;;;;;20.34;42.00;95399.44;5029770;28;20029;-78
2023/10/10 10:14:36;;;;;;;11.45;3.10;;;;;;;20.45;42.14;95409.19;5008488;28;20417;-78
2023/10/10 10:17:12;;;;;;;6.38;2.75;;;;;;;20.53;41.89;95399.94;5029909;28;20017;-78
2023/10/10 10:19:45;;;;;;;5.43;2.42;;;;;;;20.60;41.31;95399.50;5047898;28;20028;-78
2023/10/10 10:22:17;;;;;;;7.03;2.42;;;;;;;20.49;41.79;95391.00;5030580;28;20043;-78
2023/10/10 10:24:44;;;;;;;6.35;2.47;;;;;;;20.54;41.96;95392.31;5028673;28;20037;-78
2023/10/10 10:28:00;;;;;;;7.05;3.08;;;;;;;20.45;42.09;95389.66;5029891;28;20033;-77
2023/10/10 10:32:48;;;;;;;5.40;2.83;;;;;;;20.33;41.95;95392.31;5047706;28;20485;-78
2023/10/10 10:35:36;;;;;;;8.50;2.75;;;;;;;20.24;42.33;95395.25;5047945;28;20082;-78
2023/10/10 10:38:06;;;;;;;4.07;2.53;;;;;;;20.20;42.56;95394.72;5031154;28;20028;-78
2023/10/10 10:40:48;;;;;;;6.68;2.40;;;;;;;20.18;42.56;95377.66;5047831;28;20058;-79
2023/10/10 10:43:20;;;;;;;5.63;2.42;;;;;;;20.21;42.33;95378.72;5015004;28;20101;-78
2023/10/10 10:45:51;;;;;;;4.90;2.27;;;;;;;20.14;42.54;95371.53;5047595;28;20033;-78
2023/10/10 10:48:30;;;;;;;5.50;2.63;;;;;;;20.18;42.91;95374.88;5030620;28;20033;-78
2023/10/10 10:51:22;;;;;;;5.80;2.53;;;;;;;20.13;42.49;95368.00;5014267;28;20490;-78
2023/10/10 10:53:51;;;;;;;5.18;2.38;;;;;;;20.09;42.75;95372.25;5032565;28;20162;-78
2023/10/10 11:01:21;;;;;;;3.63;2.30;;;;;;;20.08;42.64;95373.50;5031056;28;20056;-78
2023/10/10 11:03:51;;;;;;;4.85;2.47;;;;;;;20.08;42.19;95376.28;5013447;28;20130;-78
2023/10/10 11:06:20;;;;;;;4.07;2.20;;;;;;;20.06;42.10;95370.41;5013290;28;20021;-78
2023/10/10 11:14:00;;;;;;;6.40;2.55;;;;;;;19.91;42.42;95361.38;5047106;28;20064;-78
2023/10/10 11:16:39;;;;;;;7.32;3.00;;;;;;;19.88;42.49;95369.44;5029707;28;20039;-78
2023/10/10 11:19:54;;;;;;;10.35;3.10;;;;;;;19.82;42.46;95370.63;5047115;28;20459;-78
2023/10/10 11:21:59;;;;;;;7.28;2.90;;;;;;;19.88;42.72;95377.03;5035202;28;20072;-78
2023/10/10 11:24:29;;;;;;;10.82;3.97;;;;;;;19.84;42.69;95366.13;5029153;28;20029;-78
2023/10/10 11:29:28;;;;;;;6.43;2.95;;;;;;;19.82;42.51;95363.03;5047025;28;20025;-78
2023/10/10 11:32:08;;;;;;;8.30;3.25;;;;;;;19.86;42.51;95369.16;5012189;28;20036;-78
2023/10/10 11:34:42;;;;;;;7.93;3.58;;;;;;;19.87;42.66;95364.34;5024904;28;20508;-77
2023/10/10 11:37:13;;;;;;;13.82;4.28;;;;;;;19.86;42.61;95368.41;5009133;28;20025;-78
2023/10/10 11:39:47;;;;;;;8.38;3.05;;;;;;;19.79;42.67;95352.09;5008805;28;20097;-79
2023/10/10 11:42:22;;;;;;;;;;;;;;;19.86;42.73;95365.63;5025744;28;20034;-79
2023/10/10 11:44:53;;;;;;;8.55;3.33;;;;;;;19.84;42.52;95363.31;5008725;28;19913;-81
2023/10/10 11:47:24;;;;;;;6.88;3.05;;;;;;;19.73;42.58;95346.44;5008878;28;20049;-79
2023/10/10 11:50:05;;;;;;;5.03;2.80;;;;;;;19.83;42.52;95367.34;5025172;28;20488;-79
2023/10/10 11:52:32;;;;;;;10.30;3.38;;;;;;;19.79;42.67;95366.81;5025164;28;20029;-77
2023/10/10 11:55:07;;;;;;;8.77;3.58;;;;;;;19.78;42.67;95365.25;5008565;28;20106;-78
2023/10/10 11:57:34;;;;;;;6.80;3.05;;;;;;;19.76;42.78;95353.81;5025479;28;20079;-78
2023/10/10 11:59:59;;;;;;;10.38;3.72;;;;;;;19.80;42.54;95362.75;5026148;28;20049;-78
2023/10/10 12:02:39;;;;;;;10.70;3.05;;;;;;;19.81;42.30;95360.72;5008739;28;20518;-78
2023/10/10 12:05:14;;;;;;;10.27;3.10;;;;;;;19.85;42.02;95359.28;5024788;28;20021;-78
2023/10/10 12:07:40;;;;;;;7.75;2.90;;;;;;;19.85;42.13;95364.09;5009664;28;20033;-78
2023/10/10 12:10:07;;;;;;;6.78;2.60;;;;;;;19.83;41.59;95353.41;5024592;28;20060;-79
2023/10/10 12:12:33;;;;;;;6.10;2.38;;;;;;;19.82;41.97;95354.66;5024618;28;20029;-78
2023/10/10 12:15:00;;;;;;;4.93;2.28;;;;;;;19.80;42.05;95350.84;5024783;28;20025;-78
2023/10/10 12:17:28;;;;;;;7.40;2.78;;;;;;;19.80;41.87;95350.84;5024613;28;20048;-78
2023/10/10 12:19:53;;;;;;;5.35;2.30;;;;;;;19.68;42.14;95361.06;5025895;28;20134;-79
2023/10/10 12:22:19;;;;;;;7.38;2.28;;;;;;;19.71;41.77;95350.97;5024174;28;20116;-78
2023/10/10 12:24:45;;;;;;;4.85;2.38;;;;;;;19.66;41.69;95358.00;5024821;28;20076;-78
2023/10/10 12:27:10;;;;;;;6.03;2.20;;;;;;;19.67;42.01;95365.13;5025614;28;20029;-78
2023/10/10 12:29:39;;;;;;;5.35;2.47;;;;;;;19.65;41.61;95362.03;5008105;28;20538;-78
2023/10/10 12:32:22;;;;;;;7.25;1.98;;;;;;;19.65;41.73;95364.81;5024616;28;20041;-79
2023/10/10 12:34:48;;;;;;;5.13;2.43;;;;;;;19.61;41.49;95367.84;5009759;28;20057;-78
2023/10/10 12:37:17;;;;;;;3.70;2.00;;;;;;;19.59;41.62;95358.41;5008046;28;20086;-78
2023/10/10 12:39:43;;;;;;;7.63;3.25;;;;;;;19.52;41.89;95365.13;5023913;28;20025;-78
2023/10/10 12:42:08;;;;;;;4.78;2.47;;;;;;;19.44;42.10;95364.00;5024562;28;20095;-78
2023/10/10 12:44:34;;;;;;;8.85;2.50;;;;;;;19.49;42.32;95365.31;5024405;28;20445;-79
2023/10/10 12:47:06;;;;;;;6.65;2.45;;;;;;;19.42;42.32;95360.16;5023308;28;20033;-78
2023/10/10 12:49:44;;;;;;;3.95;2.15;;;;;;;19.48;42.34;95363.78;5009121;28;20118;-78
2023/10/10 12:52:12;;;;;;;6.53;2.28;;;;;;;19.46;42.32;95355.16;5008728;28;20059;-78
2023/10/10 12:54:38;;;;;;;8.93;2.40;;;;;;;19.48;42.36;95363.78;5024583;28;20704;-78
2023/10/10 12:57:13;;;;;;;5.78;2.40;;;;;;;19.51;42.71;95365.63;5007270;28;20048;-78
2023/10/10 12:59:38;;;;;;;8.27;2.35;;;;;;;19.46;42.71;95364.28;5024345;28;20029;-78
2023/10/10 13:02:04;;;;;;;6.70;2.92;;;;;;;19.47;42.41;95356.69;5023601;28;20056;-77
2023/10/10 13:04:31;;;;;;;9.77;2.40;;;;;;;19.52;42.78;95364.38;5025541;28;20018;-77
2023/10/10 13:07:04;;;;;;;5.97;2.42;;;;;;;19.46;42.51;95355.91;5024393;28;20052;-79
2023/10/10 13:09:30;;;;;;;10.07;2.90;;;;;;;19.54;42.68;95359.06;5025433;28;20029;-77
2023/10/10 13:12:02;;;;;;;11.05;2.92;;;;;;;19.51;42.62;95360.03;5024107;28;20316;-78
2023/10/10 13:14:32;;;;;;;9.75;3.30;;;;;;;19.52;42.55;95356.75;5023693;28;20029;-78
2023/10/10 13:17:28;;;;;;;9.40;4.03;;;;;;;19.56;42.60;95362.91;5024242;28;20026;-78
2023/10/10 13:19:54;;;;;;;8.65;2.70;;;;;;;19.65;42.45;95356.47;5011780;28;20479;-78
2023/10/10 13:22:22;;;;;;;6.32;2.50;;;;;;;19.69;42.54;95348.66;5023766;28;20018;-79
2023/10/10 13:24:48;;;;;;;4.82;2.35;;;;;;;19.70;42.44;95355.00;5024287;28;20021;-79
2023/10/10 13:27:15;;;;;;;6.03;2.58;;;;;;;19.73;42.34;95359.63;5023494;28;20095;-77
2023/10/10 13:29:41;;;;;;;9.50;2.90;;;;;;;19.70;42.65;95352.97;5024254;28;20030;-78
2023/10/10 13:32:06;;;;;;;6.15;2.80;;;;;;;19.75;42.71;95357.09;5025169;28;20563;-78
2023/10/10 13:34:32;;;;;;;7.20;2.40;;;;;;;19.73;42.51;95357.59;5023499;28;20575;-78
2023/10/10 13:36:57;;;;;;;5.25;2.10;;;;;;;19.68;42.44;95358.28;5024197;28;20017;-78
2023/10/10 13:39:40;;;;;;;5.57;2.25;;;;;;;19.71;42.71;95354.50;5023494;28;20484;-78
2023/10/10 13:42:06;;;;;;;5.95;2.30;;;;;;;19.73;42.47;95351.25;5025375;28;20053;-79
2023/10/10 13:44:33;;;;;;;9.60;2.50;;;;;;;19.72;42.58;95361.63;5006761;28;20543;-78
2023/10/10 13:47:00;;;;;;;6.10;2.65;;;;;;;19.71;42.55;95360.09;5025650;28;20057;-78
2023/10/10 13:49:25;;;;;;;4.57;2.35;;;;;;;19.68;42.45;95360.31;5006917;28;20033;-78
2023/10/10 13:51:52;;;;;;;5.45;2.70;;;;;;;19.67;42.72;95358.75;5023766;28;20148;-78
2023/10/10 13:54:19;;;;;;;10.95;3.08;;;;;;;19.62;42.64;95369.38;5007228;28;20033;-78
2023/10/10 13:56:45;;;;;;;7.82;2.42;;;;;;;19.56;42.61;95364.94;5023424;28;20033;-78
2023/10/10 13:59:11;;;;;;;6.55;2.83;;;;;;;19.61;42.54;95355.88;5025901;28;20025;-78
2023/10/10 14:01:37;;;;;;;9.32;2.58;;;;;;;19.55;42.76;95361.34;5026585;28;20026;-78
2023/10/10 14:06:47;;;;;;;4.55;2.55;;;;;;;19.57;42.93;95366.47;5027312;28;20519;-77
2023/10/10 14:09:22;;;;;;;4.75;1.95;;;;;;;19.53;42.61;95361.09;5026828;28;20385;-79
2023/10/10 14:11:51;;;;;;;6.10;2.13;;;;;;;19.53;42.87;95368.69;5027149;28;20498;-79
2023/10/10 14:14:18;;;;;;;8.85;2.38;;;;;;;19.50;42.92;95372.47;5009945;28;20032;-78
2023/10/10 14:16:43;;;;;;;9.02;3.22;;;;;;;19.45;43.21;95368.34;5026970;28;20492;-79
2023/10/10 14:19:08;;;;;;;7.53;2.55;;;;;;;19.48;43.25;95370.13;5010170;28;20104;-79
2023/10/10 14:21:38;;;;;;;5.80;2.88;;;;;;;19.45;43.26;95370.34;5028163;28;20473;-79
2023/10/10 14:24:08;;;;;;;9.95;4.25;;;;;;;19.42;43.31;95385.25;5026847;28;20155;-79
2023/10/10 14:26:37;;;;;;;5.95;2.50;;;;;;;19.40;43.56;95384.97;5026732;28;20025;-78
2023/10/10 14:29:06;;;;;;;8.43;3.17;;;;;;;19.39;43.31;95384.22;5010194;28;20048;-79
2023/10/10 14:31:42;;;;;;;6.28;2.60;;;;;;;19.45;43.67;95381.50;5026725;28;20041;-78
2023/10/10 14:34:08;;;;;;;10.20;2.95;;;;;;;19.41;43.70;95384.47;5026884;28;20060;-79
2023/10/10 14:36:39;;;;;;;4.68;2.90;;;;;;;19.38;43.69;95385.44;5009819;28;20029;-79
2023/10/10 14:39:28;;;;;;;7.57;2.55;;;;;;;19.44;43.76;95391.09;5027024;28;20816;-78
2023/10/10 14:41:57;;;;;;;10.90;2.80;;;;;;;19.47;43.43;95398.50;5028239;28;20057;-78